createdAt,value
2024-02-24T00:00:11.798Z,4.66
2024-02-24T00:02:16.914Z,4.66
2024-02-24T00:04:21.196Z,4.63
2024-02-24T00:06:23.436Z,4.60
2024-02-24T00:08:26.647Z,4.60
2024-02-24T00:10:30.222Z,4.63
2024-02-24T00:12:34.875Z,4.65
2024-02-24T00:14:38.846Z,4.64
2024-02-24T00:16:43.208Z,4.65
2024-02-24T00:18:46.404Z,4.69
2024-02-24T00:20:49.586Z,4.70
2024-02-24T00:22:51.815Z,4.69
2024-02-24T00:24:54.971Z,4.68
2024-02-24T00:26:58.169Z,4.70
2024-02-24T00:29:03.343Z,4.69
2024-02-24T00:31:06.633Z,4.69
2024-02-24T00:33:10.013Z,4.68
2024-02-24T00:35:13.325Z,4.73
2024-02-24T00:37:16.621Z,4.72
2024-02-24T00:39:18.821Z,4.71
2024-02-24T00:41:21.954Z,4.69
2024-02-24T00:43:25.099Z,4.67
2024-02-24T00:45:29.757Z,4.70
2024-02-24T00:47:33.417Z,4.68
2024-02-24T00:49:36.630Z,4.67
2024-02-24T00:51:39.748Z,4.67
2024-02-24T00:53:42.963Z,4.66
2024-02-24T00:55:46.240Z,4.68
2024-02-24T00:57:51.650Z,4.67
2024-02-24T00:59:54.913Z,4.68
2024-02-24T01:01:59.481Z,4.69
2024-02-24T01:04:01.753Z,4.72
2024-02-24T01:06:05.281Z,4.71
2024-02-24T01:08:08.584Z,4.69
2024-02-24T01:10:15.027Z,4.66
2024-02-24T01:12:18.368Z,4.67
2024-02-24T01:14:22.083Z,4.65
2024-02-24T01:16:25.423Z,4.66
2024-02-24T01:18:30.120Z,4.67
2024-02-24T01:20:33.411Z,4.69
2024-02-24T01:22:36.667Z,4.70
2024-02-24T01:24:40.003Z,4.71
2024-02-24T01:26:43.773Z,4.69
2024-02-24T01:28:49.565Z,4.65
2024-02-24T01:30:52.664Z,4.62
2024-02-24T01:32:55.040Z,4.60
2024-02-24T01:35:00.571Z,4.62
2024-02-24T01:37:03.724Z,4.62
2024-02-24T01:39:06.216Z,4.61
2024-02-24T01:41:09.364Z,4.61
2024-02-24T01:43:26.109Z,4.60
2024-02-24T01:45:29.241Z,4.59
2024-02-24T01:47:32.557Z,4.60
2024-02-24T01:49:35.909Z,4.61
2024-02-24T01:51:41.092Z,4.60
2024-02-24T01:53:44.735Z,4.57
2024-02-24T01:55:48.362Z,4.60
2024-02-24T01:57:51.761Z,4.61
2024-02-24T01:59:56.155Z,4.63
2024-02-24T02:01:59.298Z,4.65
2024-02-24T02:04:01.362Z,4.66
2024-02-24T02:06:05.531Z,4.65
2024-02-24T02:08:10.256Z,4.65
2024-02-24T02:10:13.496Z,4.66
2024-02-24T02:12:16.854Z,4.62
2024-02-24T02:14:20.064Z,4.60
2024-02-24T02:16:23.316Z,4.62
2024-02-24T02:18:25.674Z,4.62
2024-02-24T02:20:28.938Z,4.66
2024-02-24T02:22:34.085Z,4.68
2024-02-24T02:24:37.739Z,4.68
2024-02-24T02:26:40.898Z,4.69
2024-02-24T02:28:44.074Z,4.67
2024-02-24T02:30:46.649Z,4.70
2024-02-24T02:32:50.195Z,4.72
2024-02-24T02:34:52.903Z,4.74
2024-02-24T02:36:56.000Z,4.76
2024-02-24T02:39:00.492Z,4.75
2024-02-24T02:41:03.763Z,4.74
2024-02-24T02:43:07.317Z,4.73
2024-02-24T02:45:10.603Z,4.71
2024-02-24T02:47:19.733Z,4.69
2024-02-24T02:49:26.829Z,4.68
2024-02-24T02:51:30.064Z,4.66
2024-02-24T02:53:33.184Z,4.67
2024-02-24T02:55:38.624Z,4.68
2024-02-24T02:57:42.203Z,4.67
2024-02-24T02:59:44.371Z,4.66
2024-02-24T03:01:52.855Z,4.65
2024-02-24T03:03:56.102Z,4.63
2024-02-24T03:05:59.421Z,4.61
2024-02-24T03:08:03.165Z,4.61
2024-02-24T03:10:07.408Z,4.59
2024-02-24T03:12:12.628Z,4.59
2024-02-24T03:14:14.996Z,4.56
2024-02-24T03:16:19.439Z,4.53
2024-02-24T03:18:22.870Z,4.50
2024-02-24T03:20:26.078Z,4.45
2024-02-24T03:22:29.507Z,4.45
2024-02-24T03:24:31.666Z,4.44
2024-02-24T03:26:35.403Z,4.41
2024-02-24T03:28:42.092Z,4.40
2024-02-24T03:30:44.207Z,4.36
2024-02-24T03:32:47.486Z,4.38
2024-02-24T03:34:50.865Z,4.38
2024-02-24T03:36:54.898Z,4.35
2024-02-24T03:38:58.091Z,4.34
2024-02-24T03:41:00.386Z,4.30
2024-02-24T03:43:03.519Z,4.28
2024-02-24T03:45:09.523Z,4.28
2024-02-24T03:47:12.729Z,4.28
2024-02-24T03:49:15.990Z,4.28
2024-02-24T03:51:19.304Z,4.30
2024-02-24T03:53:22.723Z,4.27
2024-02-24T03:55:25.948Z,4.26
2024-02-24T03:57:29.674Z,4.25
2024-02-24T03:59:32.908Z,4.22
2024-02-24T04:01:37.421Z,4.20
2024-02-24T04:03:39.564Z,4.22
2024-02-24T04:05:42.909Z,4.20
2024-02-24T04:07:46.370Z,4.21
2024-02-24T04:09:49.620Z,4.23
2024-02-24T04:11:54.000Z,4.19
2024-02-24T04:13:57.469Z,4.17
2024-02-24T04:16:01.037Z,4.17
2024-02-24T04:18:06.430Z,4.16
2024-02-24T04:20:11.376Z,4.19
2024-02-24T04:22:15.282Z,4.19
2024-02-24T04:24:18.337Z,4.21
2024-02-24T04:26:21.809Z,4.23
2024-02-24T04:28:25.216Z,4.22
2024-02-24T04:30:28.800Z,4.23
2024-02-24T04:32:32.155Z,4.16
2024-02-24T04:34:39.159Z,4.15
2024-02-24T04:36:43.408Z,4.17
2024-02-24T04:38:46.557Z,4.17
2024-02-24T04:40:50.102Z,4.14
2024-02-24T04:42:53.306Z,4.12
2024-02-24T04:44:56.421Z,4.11
2024-02-24T04:46:59.746Z,4.11
2024-02-24T04:49:02.967Z,4.12
2024-02-24T04:51:07.658Z,4.12
2024-02-24T04:53:11.253Z,4.14
2024-02-24T04:55:13.481Z,4.08
2024-02-24T04:57:16.611Z,4.09
2024-02-24T04:59:19.897Z,4.11
2024-02-24T05:01:23.190Z,4.12
2024-02-24T05:03:26.408Z,4.07
2024-02-24T05:05:28.755Z,4.06
2024-02-24T05:07:33.985Z,4.02
2024-02-24T05:09:37.160Z,4.01
2024-02-24T05:11:41.180Z,4.00
2024-02-24T05:13:44.602Z,3.99
2024-02-24T05:15:47.778Z,3.99
2024-02-24T05:17:51.445Z,4.05
2024-02-24T05:19:54.926Z,4.07
2024-02-24T05:21:58.211Z,4.07
2024-02-24T05:24:02.918Z,4.07
2024-02-24T05:26:05.169Z,4.04
2024-02-24T05:28:08.353Z,4.06
2024-02-24T05:30:11.034Z,4.06
2024-02-24T05:32:15.294Z,4.03
2024-02-24T05:34:18.513Z,4.06
2024-02-24T05:36:21.775Z,4.08
2024-02-24T05:38:24.896Z,4.08
2024-02-24T05:40:29.852Z,4.10
2024-02-24T05:42:32.997Z,4.10
2024-02-24T05:44:36.498Z,4.11
2024-02-24T05:46:39.990Z,4.13
2024-02-24T05:48:43.275Z,4.16
2024-02-24T05:50:46.533Z,4.18
2024-02-24T05:52:49.646Z,4.18
2024-02-24T05:54:53.911Z,4.19
2024-02-24T05:56:58.508Z,4.20
2024-02-24T05:59:02.571Z,4.15
2024-02-24T06:01:06.230Z,4.15
2024-02-24T06:03:11.447Z,4.14
2024-02-24T06:05:14.793Z,4.23
2024-02-24T06:07:22.381Z,4.33
2024-02-24T06:09:25.990Z,4.47
2024-02-24T06:11:29.273Z,4.59
2024-02-24T06:13:33.761Z,4.62
2024-02-24T06:15:37.177Z,4.64
2024-02-24T06:17:40.718Z,4.63
2024-02-24T06:19:43.904Z,4.61
2024-02-24T06:21:46.209Z,4.61
2024-02-24T06:23:49.559Z,4.62
2024-02-24T06:25:52.721Z,4.63
2024-02-24T06:27:56.316Z,4.64
2024-02-24T06:30:00.905Z,4.69
2024-02-24T06:32:04.528Z,4.69
2024-02-24T06:34:08.926Z,4.70
2024-02-24T06:36:12.324Z,4.68
2024-02-24T06:38:15.459Z,4.70
2024-02-24T06:40:26.002Z,4.67
2024-02-24T06:42:36.400Z,4.65
2024-02-24T06:44:40.535Z,4.66
2024-02-24T06:46:45.037Z,4.67
2024-02-24T06:48:48.300Z,4.66
2024-02-24T06:50:51.651Z,4.67
2024-02-24T06:52:55.985Z,4.71
2024-02-24T06:54:58.293Z,4.89
2024-02-24T06:57:01.838Z,5.04
2024-02-24T06:59:07.743Z,5.16
2024-02-24T07:01:11.225Z,5.26
2024-02-24T07:03:16.258Z,5.36
2024-02-24T07:05:19.858Z,5.47
2024-02-24T07:07:23.554Z,5.55
2024-02-24T07:09:26.727Z,5.64
2024-02-24T07:11:30.170Z,5.72
2024-02-24T07:13:33.569Z,5.73
2024-02-24T07:15:36.870Z,5.81
2024-02-24T07:17:40.295Z,5.89
2024-02-24T07:19:44.958Z,5.95
2024-02-24T07:21:48.092Z,5.99
2024-02-24T07:23:53.272Z,6.06
2024-02-24T07:25:56.777Z,6.10
2024-02-24T07:28:00.029Z,6.16
2024-02-24T07:30:03.390Z,6.20
2024-02-24T07:32:07.630Z,6.20
2024-02-24T07:34:11.941Z,6.24
2024-02-24T07:36:17.260Z,6.29
2024-02-24T07:38:21.366Z,6.33
2024-02-24T07:40:24.584Z,6.42
2024-02-24T07:42:27.752Z,6.49
2024-02-24T07:44:30.970Z,6.55
2024-02-24T07:46:34.182Z,6.61
2024-02-24T07:48:38.564Z,6.68
2024-02-24T07:50:41.764Z,6.72
2024-02-24T07:52:47.835Z,6.75
2024-02-24T07:54:50.461Z,6.81
2024-02-24T07:56:53.884Z,6.88
2024-02-24T07:58:57.166Z,6.90
2024-02-24T08:01:00.339Z,6.92
2024-02-24T08:03:03.604Z,6.94
2024-02-24T08:05:07.201Z,7.01
2024-02-24T08:07:10.378Z,7.05
2024-02-24T08:09:15.010Z,7.07
2024-02-24T08:11:18.310Z,7.03
2024-02-24T08:13:22.314Z,6.95
2024-02-24T08:15:25.618Z,6.92
2024-02-24T08:17:29.053Z,6.81
2024-02-24T08:19:35.101Z,6.80
2024-02-24T08:21:39.538Z,6.85
2024-02-24T08:23:43.271Z,6.90
2024-02-24T08:25:47.852Z,6.85
2024-02-24T08:27:51.831Z,6.83
2024-02-24T08:29:55.407Z,6.89
2024-02-24T08:31:58.763Z,6.93
2024-02-24T08:34:01.981Z,6.88
2024-02-24T08:36:06.639Z,6.82
2024-02-24T08:38:08.978Z,6.87
2024-02-24T08:40:13.360Z,6.87
2024-02-24T08:42:18.230Z,6.89
2024-02-24T08:44:21.526Z,6.93
2024-02-24T08:46:24.672Z,6.96
2024-02-24T08:48:28.195Z,6.91
2024-02-24T08:50:31.670Z,6.92
2024-02-24T08:52:42.907Z,6.91
2024-02-24T08:54:50.105Z,6.95
2024-02-24T08:56:54.165Z,7.01
2024-02-24T08:58:59.361Z,7.12
2024-02-24T09:01:03.511Z,7.45
2024-02-24T09:03:06.949Z,7.92
2024-02-24T09:05:09.363Z,8.30
2024-02-24T09:07:12.834Z,8.55
2024-02-24T09:09:16.150Z,8.83
2024-02-24T09:11:19.733Z,9.05
2024-02-24T09:13:23.165Z,9.15
2024-02-24T09:15:30.211Z,9.17
2024-02-24T09:17:35.452Z,9.34
2024-02-24T09:19:38.773Z,9.36
2024-02-24T09:21:45.858Z,9.48
2024-02-24T09:23:49.178Z,9.66
2024-02-24T09:25:52.436Z,9.81
2024-02-24T09:27:55.570Z,9.87
2024-02-24T09:29:59.488Z,10.00
2024-02-24T09:32:03.737Z,10.26
2024-02-24T09:34:09.012Z,10.39
2024-02-24T09:36:14.324Z,10.30
2024-02-24T09:38:17.566Z,10.37
2024-02-24T09:40:20.844Z,10.41
2024-02-24T09:42:28.023Z,10.55
2024-02-24T09:44:31.825Z,10.63
2024-02-24T09:46:37.793Z,10.72
2024-02-24T09:48:43.611Z,10.65
2024-02-24T09:50:47.246Z,10.86
2024-02-24T09:52:51.002Z,10.79
2024-02-24T09:54:54.394Z,10.78
2024-02-24T09:56:58.820Z,10.72
2024-02-24T09:59:02.820Z,10.57
2024-02-24T10:01:06.284Z,10.31
2024-02-24T10:03:11.499Z,10.15
2024-02-24T10:05:18.821Z,10.11
2024-02-24T10:07:22.308Z,10.03
2024-02-24T10:09:26.045Z,9.81
2024-02-24T10:11:29.785Z,9.72
2024-02-24T10:13:33.752Z,9.68
2024-02-24T10:15:37.784Z,9.74
2024-02-24T10:17:41.244Z,9.90
2024-02-24T10:19:44.655Z,10.28
2024-02-24T10:21:49.223Z,10.69
2024-02-24T10:23:52.482Z,10.92
2024-02-24T10:25:58.674Z,11.06
2024-02-24T10:28:02.496Z,10.97
2024-02-24T10:30:07.228Z,10.93
2024-02-24T10:32:11.348Z,10.82
2024-02-24T10:34:14.273Z,10.85
2024-02-24T10:36:17.668Z,11.02
2024-02-24T10:38:34.222Z,11.00
2024-02-24T10:40:43.009Z,10.99
2024-02-24T10:42:47.197Z,11.12
2024-02-24T10:44:52.404Z,11.09
2024-02-24T10:46:54.620Z,11.05
2024-02-24T10:48:58.428Z,11.07
2024-02-24T10:51:01.916Z,11.09
2024-02-24T10:53:06.743Z,11.23
2024-02-24T10:55:12.392Z,11.17
2024-02-24T10:57:16.796Z,11.29
2024-02-24T10:59:27.845Z,11.39
2024-02-24T11:01:31.395Z,11.55
2024-02-24T11:03:34.918Z,11.75
2024-02-24T11:05:38.305Z,11.66
2024-02-24T11:07:43.496Z,11.51
2024-02-24T11:09:50.292Z,11.43
2024-02-24T11:12:04.378Z,11.34
2024-02-24T11:16:15.113Z,11.32
2024-02-24T11:18:18.370Z,11.32
2024-02-24T11:20:55.269Z,11.31
2024-02-24T11:23:18.717Z,11.27
2024-02-24T11:25:22.503Z,11.15
2024-02-24T11:27:31.681Z,11.12
2024-02-24T11:29:37.520Z,11.24
2024-02-24T11:31:43.474Z,11.37
2024-02-24T11:33:47.104Z,11.47
2024-02-24T11:35:51.315Z,11.58
2024-02-24T11:37:55.319Z,11.60
2024-02-24T11:39:58.935Z,11.60
2024-02-24T11:42:02.864Z,11.64
2024-02-24T11:44:06.664Z,11.65
2024-02-24T11:46:09.905Z,11.61
2024-02-24T11:48:13.207Z,11.52
2024-02-24T11:50:16.689Z,11.44
2024-02-24T11:52:22.410Z,11.51
2024-02-24T11:54:25.680Z,11.49
2024-02-24T11:56:29.375Z,11.45
2024-02-24T11:58:32.586Z,11.47
2024-02-24T12:00:37.613Z,11.47
2024-02-24T12:02:40.979Z,11.50
2024-02-24T12:04:44.290Z,11.52
2024-02-24T12:06:48.954Z,11.55
2024-02-24T12:08:53.235Z,11.58
2024-02-24T12:10:56.622Z,11.53
2024-02-24T12:13:00.344Z,11.61
2024-02-24T12:15:05.431Z,11.76
2024-02-24T12:17:13.244Z,11.81
2024-02-24T12:19:17.191Z,11.82
2024-02-24T12:21:20.971Z,11.83
2024-02-24T12:23:23.891Z,11.87
2024-02-24T12:25:28.818Z,11.94
2024-02-24T12:27:32.941Z,12.12
2024-02-24T12:29:36.201Z,12.26
2024-02-24T12:31:39.570Z,12.32
2024-02-24T12:33:46.214Z,12.38
2024-02-24T12:35:49.619Z,12.31
2024-02-24T12:37:54.216Z,12.19
2024-02-24T12:39:57.376Z,12.19
2024-02-24T12:42:02.430Z,12.09
2024-02-24T12:44:07.349Z,11.98
2024-02-24T12:46:10.087Z,11.90
2024-02-24T12:48:13.571Z,11.94
2024-02-24T12:50:18.555Z,11.96
2024-02-24T12:52:22.034Z,11.93
2024-02-24T12:54:25.761Z,11.97
2024-02-24T12:56:28.170Z,11.98
2024-02-24T12:58:31.527Z,11.94
2024-02-24T13:00:34.976Z,11.89
2024-02-24T13:02:38.846Z,11.73
2024-02-24T13:04:42.251Z,11.58
2024-02-24T13:06:47.358Z,11.40
2024-02-24T13:08:50.997Z,11.33
2024-02-24T13:10:54.951Z,11.41
2024-02-24T13:12:58.791Z,11.45
2024-02-24T13:15:03.804Z,11.44
2024-02-24T13:17:06.712Z,11.44
2024-02-24T13:19:10.149Z,11.40
2024-02-24T13:21:12.456Z,11.19
2024-02-24T13:23:18.513Z,11.07
2024-02-24T13:25:23.511Z,10.98
2024-02-24T13:27:26.686Z,11.14
2024-02-24T13:29:30.376Z,11.29
2024-02-24T13:31:33.569Z,11.41
2024-02-24T13:33:36.934Z,11.47
2024-02-24T13:35:40.145Z,11.54
2024-02-24T13:37:43.650Z,11.42
2024-02-24T13:39:48.819Z,11.36
2024-02-24T13:41:52.664Z,11.33
2024-02-24T13:43:56.503Z,11.35
2024-02-24T13:45:59.705Z,11.37
2024-02-24T13:48:02.806Z,11.27
2024-02-24T13:50:06.810Z,11.35
2024-02-24T13:52:10.462Z,11.46
2024-02-24T13:54:13.722Z,11.54
2024-02-24T13:56:18.665Z,11.65
2024-02-24T13:58:21.988Z,11.76
2024-02-24T14:00:25.119Z,11.87
2024-02-24T14:02:30.109Z,11.89
2024-02-24T14:04:33.461Z,11.82
2024-02-24T14:06:37.915Z,11.79
2024-02-24T14:08:41.833Z,11.79
2024-02-24T14:10:45.134Z,11.83
2024-02-24T14:12:49.741Z,11.82
2024-02-24T14:14:53.025Z,11.78
2024-02-24T14:16:56.335Z,11.75
2024-02-24T14:18:58.790Z,11.63
2024-02-24T14:21:02.134Z,11.58
2024-02-24T14:23:05.806Z,11.57
2024-02-24T14:25:09.816Z,11.56
2024-02-24T14:27:12.924Z,11.55
2024-02-24T14:29:17.571Z,11.54
2024-02-24T14:31:21.012Z,11.50
2024-02-24T14:33:23.978Z,11.49
2024-02-24T14:35:27.395Z,11.44
2024-02-24T14:37:30.714Z,11.47
2024-02-24T14:39:34.744Z,11.46
2024-02-24T14:41:37.957Z,11.49
2024-02-24T14:43:41.667Z,11.47
2024-02-24T14:45:46.373Z,11.35
2024-02-24T14:47:49.823Z,11.31
2024-02-24T14:49:53.718Z,11.25
2024-02-24T14:51:56.906Z,11.23
2024-02-24T14:54:00.536Z,11.13
2024-02-24T14:56:05.119Z,11.02
2024-02-24T14:58:08.385Z,10.95
2024-02-24T15:00:14.295Z,10.97
2024-02-24T15:02:30.275Z,10.99
2024-02-24T15:04:42.264Z,10.98
2024-02-24T15:06:48.171Z,10.90
2024-02-24T15:08:51.505Z,10.79
2024-02-24T15:10:54.773Z,10.78
2024-02-24T15:12:58.058Z,10.71
2024-02-24T15:15:01.381Z,10.71
2024-02-24T15:17:04.706Z,10.66
2024-02-24T15:19:09.436Z,10.61
2024-02-24T15:21:13.483Z,10.65
2024-02-24T15:23:16.677Z,10.68
2024-02-24T15:25:19.678Z,10.72
2024-02-24T15:27:25.706Z,10.76
2024-02-24T15:29:29.164Z,10.75
2024-02-24T15:31:34.565Z,10.74
2024-02-24T15:33:38.639Z,10.72
2024-02-24T15:35:43.466Z,10.72
2024-02-24T15:37:46.805Z,10.77
2024-02-24T15:39:50.200Z,10.81
2024-02-24T15:41:53.727Z,10.84
2024-02-24T15:43:57.060Z,10.88
2024-02-24T15:46:02.053Z,10.93
2024-02-24T15:48:06.018Z,10.95
2024-02-24T15:50:10.823Z,10.89
2024-02-24T15:52:15.609Z,10.94
2024-02-24T15:54:19.032Z,11.00
2024-02-24T15:56:22.579Z,11.01
2024-02-24T15:58:25.866Z,11.04
2024-02-24T16:00:29.197Z,11.04
2024-02-24T16:02:33.184Z,11.07
2024-02-24T16:04:37.534Z,11.03
2024-02-24T16:06:39.989Z,11.05
2024-02-24T16:08:44.989Z,10.99
2024-02-24T16:10:49.926Z,11.01
2024-02-24T16:12:55.707Z,10.93
2024-02-24T16:14:59.162Z,10.84
2024-02-24T16:17:04.452Z,10.73
2024-02-24T16:19:09.850Z,10.65
2024-02-24T16:21:14.766Z,10.60
2024-02-24T16:23:19.543Z,10.61
2024-02-24T16:25:24.394Z,10.58
2024-02-24T16:27:27.660Z,10.59
2024-02-24T16:29:31.551Z,10.55
2024-02-24T16:31:34.922Z,10.58
2024-02-24T16:33:39.290Z,10.57
2024-02-24T16:35:46.179Z,10.50
2024-02-24T16:37:52.368Z,10.37
2024-02-24T16:39:57.062Z,10.43
2024-02-24T16:42:02.408Z,10.34
2024-02-24T16:44:09.323Z,10.19
2024-02-24T16:46:14.588Z,10.00
2024-02-24T16:48:18.289Z,9.85
2024-02-24T16:50:24.505Z,9.76
2024-02-24T16:52:26.973Z,9.59
2024-02-24T16:54:30.303Z,9.50
2024-02-24T16:56:34.034Z,9.46
2024-02-24T16:58:38.790Z,9.36
2024-02-24T17:00:42.146Z,9.20
2024-02-24T17:02:48.312Z,9.13
2024-02-24T17:04:52.127Z,8.99
2024-02-24T17:06:58.686Z,8.96
2024-02-24T17:09:03.755Z,8.95
2024-02-24T17:11:07.238Z,8.89
2024-02-24T17:13:11.199Z,8.85
2024-02-24T17:15:16.037Z,8.80
2024-02-24T17:17:19.433Z,8.78
2024-02-24T17:19:23.110Z,8.73
2024-02-24T17:21:28.661Z,8.68
2024-02-24T17:23:33.432Z,8.65
2024-02-24T17:25:36.741Z,8.65
2024-02-24T17:27:40.662Z,8.59
2024-02-24T17:29:44.284Z,8.59
2024-02-24T17:31:48.966Z,8.58
2024-02-24T17:33:53.405Z,8.51
2024-02-24T17:35:55.887Z,8.45
2024-02-24T17:38:02.665Z,8.39
2024-02-24T17:40:07.721Z,8.30
2024-02-24T17:42:12.314Z,8.24
2024-02-24T17:44:15.526Z,8.22
2024-02-24T17:46:18.205Z,8.19
2024-02-24T17:48:23.609Z,8.16
2024-02-24T17:50:26.937Z,8.12
2024-02-24T17:52:30.288Z,8.12
2024-02-24T17:54:33.714Z,8.13
2024-02-24T17:56:39.916Z,8.13
2024-02-24T17:58:47.618Z,8.11
2024-02-24T18:00:51.359Z,8.14
2024-02-24T18:02:53.789Z,8.16
2024-02-24T18:05:00.699Z,8.18
2024-02-24T18:07:04.655Z,8.18
2024-02-24T18:09:08.405Z,8.23
2024-02-24T18:11:11.728Z,8.24
2024-02-24T18:13:15.056Z,8.24
2024-02-24T18:15:18.468Z,8.25
2024-02-24T18:17:22.205Z,8.24
2024-02-24T18:19:25.695Z,8.22
2024-02-24T18:21:29.476Z,8.22
2024-02-24T18:23:33.219Z,8.17
2024-02-24T18:25:37.017Z,8.16
2024-02-24T18:27:40.350Z,8.16
2024-02-24T18:29:45.487Z,8.10
2024-02-24T18:31:48.760Z,8.11
2024-02-24T18:33:52.289Z,8.09
2024-02-24T18:35:58.034Z,8.08
2024-02-24T18:38:02.766Z,8.08
2024-02-24T18:40:07.175Z,8.07
2024-02-24T18:42:10.619Z,8.06
2024-02-24T18:44:16.070Z,8.03
2024-02-24T18:46:22.611Z,8.02
2024-02-24T18:48:26.106Z,7.99
2024-02-24T18:50:29.535Z,7.98
2024-02-24T18:52:32.929Z,7.96
2024-02-24T18:54:37.836Z,7.96
2024-02-24T18:56:41.228Z,7.95
2024-02-24T18:58:47.574Z,7.99
2024-02-24T19:00:51.079Z,7.97
2024-02-24T19:02:54.445Z,7.99
2024-02-24T19:04:58.270Z,8.03
2024-02-24T19:07:01.704Z,8.00
2024-02-24T19:09:05.274Z,7.99
2024-02-24T19:11:11.884Z,8.00
2024-02-24T19:13:15.189Z,8.03
2024-02-24T19:15:19.976Z,8.07
2024-02-24T19:17:22.647Z,8.09
2024-02-24T19:19:28.917Z,8.04
2024-02-24T19:21:31.108Z,8.05
2024-02-24T19:23:35.014Z,8.04
2024-02-24T19:25:38.427Z,8.06
2024-02-24T19:27:43.118Z,8.07
2024-02-24T19:29:46.760Z,8.10
2024-02-24T19:31:50.209Z,8.12
2024-02-24T19:33:56.510Z,8.13
2024-02-24T19:36:00.660Z,8.10
2024-02-24T19:38:04.522Z,8.06
2024-02-24T19:40:10.366Z,8.04
2024-02-24T19:42:13.742Z,8.06
2024-02-24T19:44:18.785Z,8.08
2024-02-24T19:46:21.716Z,8.10
2024-02-24T19:48:25.849Z,8.14
2024-02-24T19:50:29.548Z,8.14
2024-02-24T19:52:32.850Z,8.11
2024-02-24T19:54:36.830Z,8.08
2024-02-24T19:56:40.128Z,8.06
2024-02-24T19:58:51.646Z,7.99
2024-02-24T20:01:01.081Z,7.99
2024-02-24T20:03:05.250Z,7.98
2024-02-24T20:05:10.941Z,7.92
2024-02-24T20:07:15.123Z,7.89
2024-02-24T20:09:18.931Z,7.88
2024-02-24T20:11:22.324Z,7.90
2024-02-24T20:13:25.560Z,7.89
2024-02-24T20:15:28.810Z,7.87
2024-02-24T20:17:33.558Z,7.85
2024-02-24T20:19:36.947Z,7.84
2024-02-24T20:21:40.148Z,7.84
2024-02-24T20:23:43.880Z,7.83
2024-02-24T20:25:52.207Z,7.83
2024-02-24T20:27:55.567Z,7.82
2024-02-24T20:29:59.349Z,7.84
2024-02-24T20:32:02.536Z,7.82
2024-02-24T20:34:08.775Z,7.79
2024-02-24T20:36:12.759Z,7.76
2024-02-24T20:38:16.062Z,7.78
2024-02-24T20:40:18.471Z,7.77
2024-02-24T20:42:22.144Z,7.76
2024-02-24T20:44:25.478Z,7.72
2024-02-24T20:46:28.697Z,7.69
2024-02-24T20:48:32.245Z,7.68
2024-02-24T20:50:37.377Z,7.69
2024-02-24T20:52:41.321Z,7.71
2024-02-24T20:54:46.871Z,7.67
2024-02-24T20:56:49.289Z,7.67
2024-02-24T20:58:52.937Z,7.67
2024-02-24T21:00:56.247Z,7.65
2024-02-24T21:02:59.604Z,7.64
2024-02-24T21:05:01.769Z,7.65
2024-02-24T21:07:06.498Z,7.63
2024-02-24T21:09:08.788Z,7.60
2024-02-24T21:11:12.014Z,7.60
2024-02-24T21:13:15.151Z,7.59
2024-02-24T21:15:18.505Z,7.55
2024-02-24T21:17:20.749Z,7.55
2024-02-24T21:19:24.792Z,7.55
2024-02-24T21:21:27.906Z,7.55
2024-02-24T21:23:33.219Z,7.54
2024-02-24T21:25:36.467Z,7.55
2024-02-24T21:27:39.649Z,7.55
2024-02-24T21:29:42.787Z,7.57
2024-02-24T21:31:46.005Z,7.57
2024-02-24T21:33:51.995Z,7.58
2024-02-24T21:35:55.239Z,7.56
2024-02-24T21:37:58.376Z,7.59
2024-02-24T21:40:03.532Z,7.54
2024-02-24T21:42:08.499Z,7.46
2024-02-24T21:44:12.339Z,7.41
2024-02-24T21:46:17.098Z,7.36
2024-02-24T21:48:22.452Z,7.24
2024-02-24T21:50:25.975Z,7.18
2024-02-24T21:52:29.600Z,7.14
2024-02-24T21:54:32.208Z,7.08
2024-02-24T21:56:37.017Z,7.02
2024-02-24T21:58:40.303Z,6.97
2024-02-24T22:00:44.254Z,6.87
2024-02-24T22:02:48.221Z,6.79
2024-02-24T22:04:51.393Z,6.75
2024-02-24T22:06:55.230Z,6.63
2024-02-24T22:08:58.975Z,6.55
2024-02-24T22:11:02.647Z,6.49
2024-02-24T22:13:08.873Z,6.43
2024-02-24T22:15:14.184Z,6.40
2024-02-24T22:17:19.612Z,6.34
2024-02-24T22:19:23.384Z,6.29
2024-02-24T22:21:27.753Z,6.23
2024-02-24T22:23:30.994Z,6.17
2024-02-24T22:25:34.316Z,6.14
2024-02-24T22:27:38.518Z,6.07
2024-02-24T22:29:43.767Z,6.01
2024-02-24T22:31:48.052Z,5.94
2024-02-24T22:33:51.695Z,5.88
2024-02-24T22:35:55.793Z,5.83
2024-02-24T22:37:59.132Z,5.79
2024-02-24T22:40:03.897Z,5.73
2024-02-24T22:42:07.322Z,5.66
2024-02-24T22:44:10.771Z,5.63
2024-02-24T22:46:15.436Z,5.58
2024-02-24T22:48:18.959Z,5.54
2024-02-24T22:50:22.596Z,5.48
2024-02-24T22:52:25.998Z,5.46
2024-02-24T22:54:28.322Z,5.42
2024-02-24T22:56:32.081Z,5.37
2024-02-24T22:58:35.743Z,5.33
2024-02-24T23:00:39.325Z,5.32
2024-02-24T23:02:45.356Z,5.26
2024-02-24T23:04:48.025Z,5.25
2024-02-24T23:06:51.738Z,5.21
2024-02-24T23:08:56.944Z,5.18
2024-02-24T23:11:01.531Z,5.14
2024-02-24T23:13:05.558Z,5.12
2024-02-24T23:15:10.839Z,5.10
2024-02-24T23:17:14.773Z,5.07
2024-02-24T23:19:21.181Z,5.07
2024-02-24T23:21:26.549Z,5.00
2024-02-24T23:23:29.848Z,4.98
2024-02-24T23:25:33.152Z,4.92
2024-02-24T23:27:35.614Z,4.88
2024-02-24T23:29:38.931Z,4.84
2024-02-24T23:31:42.074Z,4.83
2024-02-24T23:33:45.594Z,4.81
2024-02-24T23:35:50.322Z,4.78
2024-02-24T23:37:53.559Z,4.76
2024-02-24T23:39:56.825Z,4.75
2024-02-24T23:42:00.140Z,4.66
2024-02-24T23:44:03.386Z,4.63
2024-02-24T23:46:06.730Z,4.60
2024-02-24T23:48:10.023Z,4.61
2024-02-24T23:50:13.237Z,4.57
2024-02-24T23:52:17.813Z,4.53
2024-02-24T23:54:20.984Z,4.48
2024-02-24T23:56:25.152Z,4.46
2024-02-24T23:58:28.747Z,4.43
